Time;durP1;ratioP1;P1;durP2;ratioP2;P2;SDS_P1;SDS_P2;PMS_P1;PMS_P2;Temp;Humidity;BMP_temperature;BMP_pressure;BME280_temperature;BME280_humidity;BME280_pressure;Samples;Min_cycle;Max_cycle;Signal;HPM_P1;HPM_P2
2023/02/08 00:02:16;;;;;;;5.73;4.67;;;2.80;97.20;;;;;;5032311;28;20228;-77
2023/02/08 00:04:42;;;;;;;5.60;3.90;;;2.80;96.90;;;;;;5032686;28;20174;-77
2023/02/08 00:07:08;;;;;;;6.70;4.37;;;2.80;96.90;;;;;;5031860;28;20196;-77
2023/02/08 00:09:33;;;;;;;7.33;4.70;;;2.80;97.10;;;;;;5034533;28;20185;-77
2023/02/08 00:11:59;;;;;;;7.57;5.27;;;2.70;97.10;;;;;;5032302;28;20549;-77
2023/02/08 00:14:25;;;;;;;6.60;4.40;;;2.70;97.00;;;;;;5032582;28;20272;-77
2023/02/08 00:16:50;;;;;;;8.53;4.97;;;2.70;97.30;;;;;;5033087;28;20181;-77
2023/02/08 00:19:16;;;;;;;7.80;4.90;;;2.70;97.20;;;;;;5015804;28;20177;-77
2023/02/08 00:21:42;;;;;;;7.97;5.27;;;2.70;97.40;;;;;;5032651;28;20724;-77
2023/02/08 00:24:07;;;;;;;8.40;6.37;;;2.70;97.50;;;;;;5032949;28;20595;-77
2023/02/08 00:26:33;;;;;;;6.03;4.60;;;2.70;97.40;;;;;;5033276;28;20177;-77
2023/02/08 00:28:59;;;;;;;8.30;5.73;;;2.60;97.40;;;;;;5033379;28;20201;-77
2023/02/08 00:31:24;;;;;;;6.07;4.80;;;2.70;97.50;;;;;;5032367;28;20260;-77
2023/02/08 00:33:50;;;;;;;6.53;4.53;;;2.60;97.60;;;;;;5033165;28;20181;-77
2023/02/08 00:36:17;;;;;;;9.43;5.63;;;2.60;97.60;;;;;;5034154;28;20508;-77
2023/02/08 00:38:42;;;;;;;7.20;5.50;;;2.60;97.80;;;;;;5035459;28;20228;-77
2023/02/08 00:41:09;;;;;;;6.17;4.57;;;2.60;97.80;;;;;;5031780;28;20764;-77
2023/02/08 00:43:34;;;;;;;9.27;5.05;;;2.60;97.80;;;;;;5032320;28;20182;-77
2023/02/08 00:46:01;;;;;;;8.05;5.22;;;2.60;97.60;;;;;;5014164;28;20173;-77
2023/02/08 00:48:27;;;;;;;7.07;5.55;;;2.60;97.70;;;;;;5031072;28;20178;-77
2023/02/08 00:51:08;;;;;;;9.82;5.50;;;2.60;97.70;;;;;;5033021;28;20580;-77
2023/02/08 00:53:36;;;;;;;8.00;6.18;;;2.60;97.70;;;;;;5030827;28;20193;-77
2023/02/08 00:56:04;;;;;;;5.05;4.38;;;2.60;97.70;;;;;;5030824;28;20185;-77
2023/02/08 00:58:31;;;;;;;7.97;5.90;;;2.60;97.80;;;;;;5031061;28;20204;-77
2023/02/08 01:00:56;;;;;;;9.30;5.40;;;2.60;97.90;;;;;;5032338;28;20197;-77
2023/02/08 01:03:23;;;;;;;10.07;5.50;;;2.50;97.70;;;;;;5030312;28;20222;-77
2023/02/08 01:05:50;;;;;;;6.47;4.45;;;2.60;98.00;;;;;;5030193;28;20181;-77
2023/02/08 01:08:15;;;;;;;8.80;5.10;;;2.50;98.10;;;;;;5032011;28;20173;-78
2023/02/08 01:10:41;;;;;;;8.13;6.20;;;2.50;97.90;;;;;;5031534;28;20573;-77
2023/02/08 01:13:07;;;;;;;9.97;6.63;;;2.50;98.10;;;;;;5031917;28;20185;-77
2023/02/08 01:15:33;;;;;;;8.88;6.47;;;2.50;98.00;;;;;;5035043;28;20177;-77
2023/02/08 01:18:00;;;;;;;7.72;5.25;;;2.50;98.20;;;;;;5030134;28;20185;-77
2023/02/08 01:20:26;;;;;;;9.30;5.10;;;2.50;98.20;;;;;;5042274;28;20200;-77
2023/02/08 01:22:51;;;;;;;9.00;5.00;;;2.50;98.20;;;;;;5042633;28;20702;-77
2023/02/08 01:25:17;;;;;;;6.53;4.67;;;2.50;98.40;;;;;;5023026;28;20239;-77
2023/02/08 01:27:43;;;;;;;6.27;4.00;;;2.50;98.40;;;;;;5033566;28;20188;-77
2023/02/08 01:30:09;;;;;;;9.00;5.20;;;2.50;98.40;;;;;;5033145;28;20814;-77
2023/02/08 01:32:35;;;;;;;9.32;5.80;;;2.40;98.40;;;;;;5026639;28;20266;-77
2023/02/08 01:35:01;;;;;;;5.55;4.43;;;2.40;98.50;;;;;;5043647;28;20165;-77
2023/02/08 01:37:26;;;;;;;6.50;4.53;;;2.40;98.60;;;;;;5050497;28;20173;-77
2023/02/08 01:39:52;;;;;;;8.10;5.10;;;2.40;98.70;;;;;;5034099;28;20247;-77
2023/02/08 01:42:20;;;;;;;10.18;5.57;;;2.40;98.80;;;;;;5032729;28;20258;-77
2023/02/08 01:45:21;;;;;;;8.93;5.30;;;2.40;98.80;;;;;;5051184;28;20169;-76
2023/02/08 01:48:16;;;;;;;7.10;5.20;;;2.40;98.70;;;;;;5054052;28;20164;-76
2023/02/08 01:50:52;;;;;;;7.65;4.60;;;2.40;98.80;;;;;;5052427;28;20220;-76
2023/02/08 01:53:18;;;;;;;6.57;4.78;;;2.40;98.90;;;;;;5055162;28;20698;-76
2023/02/08 01:55:50;;;;;;;5.95;3.97;;;2.40;99.00;;;;;;5054161;28;20235;-77
2023/02/08 01:58:17;;;;;;;7.53;5.13;;;2.40;99.00;;;;;;5037165;28;20180;-77
2023/02/08 02:00:43;;;;;;;6.68;4.45;;;2.40;99.10;;;;;;5053772;28;20216;-77
2023/02/08 02:03:12;;;;;;;7.05;4.65;;;2.30;99.00;;;;;;5016512;28;20700;-76
2023/02/08 02:05:41;;;;;;;6.43;4.78;;;2.40;99.20;;;;;;5034640;28;20527;-77
2023/02/08 02:08:08;;;;;;;7.45;4.30;;;2.30;99.10;;;;;;5016765;28;20172;-76
2023/02/08 02:10:36;;;;;;;7.22;4.40;;;2.30;99.20;;;;;;5000682;28;20265;-76
2023/02/08 02:13:24;;;;;;;8.90;6.15;;;2.30;99.30;;;;;;5032925;28;20197;-76
2023/02/08 02:15:51;;;;;;;7.05;5.00;;;2.30;99.30;;;;;;5033117;28;20196;-76
2023/02/08 02:18:26;;;;;;;6.68;4.88;;;2.30;99.40;;;;;;5016569;28;20181;-76
2023/02/08 02:21:01;;;;;;;6.65;4.72;;;2.20;99.40;;;;;;5033356;28;20201;-76
2023/02/08 02:23:57;;;;;;;6.93;4.90;;;2.20;99.40;;;;;;5016469;28;20204;-76
2023/02/08 02:26:48;;;;;;;8.18;4.32;;;2.20;99.50;;;;;;5032993;28;20165;-76
2023/02/08 02:29:51;;;;;;;5.82;5.20;;;2.20;99.40;;;;;;5021341;28;20162;-76
2023/02/08 02:32:18;;;;;;;5.35;4.80;;;2.10;99.40;;;;;;5032959;28;20200;-76
2023/02/08 02:34:46;;;;;;;8.98;4.97;;;2.10;99.60;;;;;;5032283;28;20177;-76
2023/02/08 02:37:22;;;;;;;5.75;4.20;;;2.10;99.70;;;;;;5016751;28;20235;-76
2023/02/08 02:40:02;;;;;;;9.82;6.35;;;2.10;99.80;;;;;;5016425;28;20254;-76
2023/02/08 02:46:18;;;;;;;7.07;5.60;;;2.10;99.80;;;;;;5032343;28;20650;-76
2023/02/08 02:49:03;;;;;;;6.95;5.18;;;2.00;99.70;;;;;;5013432;28;20177;-76
2023/02/08 02:51:55;;;;;;;7.53;5.35;;;2.00;99.80;;;;;;5032686;28;20272;-77
2023/02/08 02:54:50;;;;;;;6.90;4.55;;;2.00;99.90;;;;;;5033733;28;20557;-76
2023/02/08 02:57:23;;;;;;;6.68;4.75;;;2.00;99.90;;;;;;5034131;28;20180;-76
2023/02/08 02:59:49;;;;;;;7.90;5.75;;;2.00;99.90;;;;;;5032365;28;20182;-77
2023/02/08 03:02:15;;;;;;;9.60;5.80;;;2.00;99.90;;;;;;5034413;28;20591;-77
2023/02/08 03:04:40;;;;;;;7.60;5.67;;;2.00;99.90;;;;;;5015693;28;20172;-77
2023/02/08 03:07:21;;;;;;;8.70;6.77;;;2.00;99.90;;;;;;5037427;28;20178;-77
2023/02/08 03:09:53;;;;;;;7.55;4.82;;;2.00;99.90;;;;;;5032294;28;20177;-77
2023/02/08 03:12:45;;;;;;;7.65;5.30;;;1.90;99.90;;;;;;5032209;28;20277;-77
2023/02/08 03:15:36;;;;;;;7.13;5.30;;;2.00;99.90;;;;;;5031561;28;20205;-76
2023/02/08 03:18:13;;;;;;;7.20;5.25;;;2.00;99.90;;;;;;5032466;28;20188;-76
2023/02/08 03:21:24;;;;;;;5.80;4.78;;;2.00;99.90;;;;;;5033305;28;20615;-76
2023/02/08 03:23:53;;;;;;;7.13;4.95;;;1.90;99.90;;;;;;5032002;28;20205;-77
2023/02/08 03:26:33;;;;;;;10.40;6.20;;;1.90;99.90;;;;;;5031523;28;20181;-77
2023/02/08 03:29:18;;;;;;;7.57;5.47;;;1.90;99.90;;;;;;5032194;28;20173;-77
2023/02/08 03:31:58;;;;;;;7.90;4.90;;;1.90;99.90;;;;;;5031640;28;20173;-77
2023/02/08 03:35:15;;;;;;;10.00;6.40;;;1.90;99.90;;;;;;5033461;28;20174;-76
2023/02/08 03:37:44;;;;;;;7.82;5.85;;;1.80;99.90;;;;;;4991117;28;20273;-77
2023/02/08 03:40:17;;;;;;;8.27;5.50;;;1.80;99.90;;;;;;4991515;28;20237;-77
2023/02/08 03:42:44;;;;;;;7.82;5.68;;;1.80;99.90;;;;;;5016108;28;20244;-77
2023/02/08 03:45:17;;;;;;;9.85;5.93;;;1.80;99.90;;;;;;5022968;28;20173;-77
2023/02/08 03:47:46;;;;;;;8.40;6.10;;;1.80;99.90;;;;;;5035117;28;20189;-77
2023/02/08 03:50:16;;;;;;;9.90;7.35;;;1.80;99.90;;;;;;5047997;28;20173;-77
2023/02/08 03:52:45;;;;;;;8.77;6.55;;;1.80;99.90;;;;;;5054123;22;20249;-75
2023/02/08 03:55:22;;;;;;;9.27;6.15;;;1.80;99.90;;;;;;5030028;28;20173;-74
2023/02/08 03:58:09;;;;;;;8.07;6.30;;;1.80;99.90;;;;;;5017880;28;20173;-75
2023/02/08 04:00:41;;;;;;;10.57;6.85;;;1.80;99.90;;;;;;5018450;28;20259;-74
2023/02/08 04:03:19;;;;;;;9.27;6.22;;;1.70;99.90;;;;;;5052191;28;20185;-74
2023/02/08 04:05:45;;;;;;;11.95;8.32;;;1.70;99.90;;;;;;5042949;28;20173;-74
2023/02/08 04:08:11;;;;;;;7.70;5.63;;;1.70;99.90;;;;;;5031524;28;20646;-75
2023/02/08 04:10:37;;;;;;;8.20;6.50;;;1.70;99.90;;;;;;5032611;28;21308;-75
2023/02/08 04:13:03;;;;;;;7.67;5.23;;;1.80;99.90;;;;;;4997507;28;20193;-75
2023/02/08 04:15:29;;;;;;;7.20;5.78;;;1.70;99.90;;;;;;5014232;28;20654;-74
2023/02/08 04:17:55;;;;;;;10.32;6.78;;;1.70;99.90;;;;;;4998403;28;20188;-74
2023/02/08 04:20:20;;;;;;;8.90;7.20;;;1.70;99.90;;;;;;5032006;28;20169;-75
2023/02/08 04:22:46;;;;;;;9.53;7.07;;;1.70;99.90;;;;;;5014266;28;20607;-75
2023/02/08 04:25:13;;;;;;;7.70;6.90;;;1.70;99.90;;;;;;5031628;28;20185;-74
2023/02/08 04:27:39;;;;;;;8.00;6.45;;;1.70;99.90;;;;;;5014497;28;20174;-75
2023/02/08 04:30:05;;;;;;;7.50;5.50;;;1.70;99.90;;;;;;5016811;28;20641;-74
2023/02/08 04:32:31;;;;;;;8.40;6.03;;;1.70;99.90;;;;;;4997722;28;20198;-74
2023/02/08 04:34:57;;;;;;;8.50;7.35;;;1.70;99.90;;;;;;4997274;28;20209;-75
2023/02/08 04:37:23;;;;;;;6.63;5.60;;;1.70;99.90;;;;;;4997902;28;20205;-75
2023/02/08 04:39:49;;;;;;;10.20;5.60;;;1.70;99.90;;;;;;5014215;28;20236;-74
2023/02/08 04:42:15;;;;;;;10.03;6.50;;;1.70;99.90;;;;;;5031281;28;20635;-75
2023/02/08 04:44:41;;;;;;;7.50;6.10;;;1.60;99.90;;;;;;5031760;28;20170;-74
2023/02/08 04:47:07;;;;;;;10.10;6.32;;;1.60;99.90;;;;;;4997452;28;20181;-75
2023/02/08 04:49:32;;;;;;;9.37;5.73;;;1.60;99.90;;;;;;5013200;28;20518;-74
2023/02/08 04:51:58;;;;;;;10.83;6.63;;;1.60;99.90;;;;;;5013054;28;20240;-75
2023/02/08 04:54:24;;;;;;;7.20;4.50;;;1.60;99.90;;;;;;5014148;28;20264;-75
2023/02/08 04:56:50;;;;;;;8.53;6.73;;;1.60;99.90;;;;;;5013351;28;20495;-76
2023/02/08 04:59:15;;;;;;;8.70;5.40;;;1.60;99.90;;;;;;5014001;28;20573;-76
2023/02/08 05:01:41;;;;;;;6.93;5.23;;;1.60;99.90;;;;;;5019643;28;21209;-76
2023/02/08 05:04:07;;;;;;;6.50;5.53;;;1.60;99.90;;;;;;5013778;28;20180;-75
2023/02/08 05:06:33;;;;;;;6.70;5.10;;;1.60;99.90;;;;;;5016195;28;20211;-75
2023/02/08 05:09:02;;;;;;;9.95;6.13;;;1.60;99.90;;;;;;5000961;28;20184;-76
2023/02/08 05:11:28;;;;;;;6.03;4.90;;;1.60;99.90;;;;;;5030944;28;20224;-76
2023/02/08 05:13:54;;;;;;;7.28;5.63;;;1.60;99.90;;;;;;5031719;28;20176;-76
2023/02/08 05:16:19;;;;;;;7.13;4.87;;;1.60;99.90;;;;;;5013033;28;20166;-75
2023/02/08 05:18:45;;;;;;;9.90;5.90;;;1.60;99.90;;;;;;5031025;28;20944;-75
2023/02/08 05:21:11;;;;;;;7.13;5.40;;;1.60;99.90;;;;;;5013331;28;20213;-76
2023/02/08 05:23:37;;;;;;;10.23;6.97;;;1.50;99.90;;;;;;5013396;28;20580;-75
2023/02/08 05:26:07;;;;;;;7.63;5.32;;;1.50;99.90;;;;;;5013137;28;20208;-74
2023/02/08 05:28:33;;;;;;;8.25;6.32;;;1.50;99.90;;;;;;4996815;28;20177;-75
2023/02/08 05:31:06;;;;;;;7.45;4.97;;;1.50;99.90;;;;;;5013414;28;20224;-74
2023/02/08 05:33:32;;;;;;;6.90;5.22;;;1.50;99.90;;;;;;5012351;28;20212;-74
2023/02/08 05:35:57;;;;;;;6.57;4.40;;;1.50;99.90;;;;;;5030313;28;20217;-74
2023/02/08 05:38:23;;;;;;;7.60;5.63;;;1.50;99.90;;;;;;5013211;28;20178;-74
2023/02/08 05:40:49;;;;;;;9.73;5.20;;;1.50;99.90;;;;;;5013485;28;20205;-74
2023/02/08 05:43:15;;;;;;;8.57;4.93;;;1.50;99.90;;;;;;5013732;28;20194;-74
2023/02/08 05:45:40;;;;;;;7.83;6.10;;;1.50;99.90;;;;;;4999850;28;20644;-74
2023/02/08 05:48:06;;;;;;;8.67;5.63;;;1.50;99.90;;;;;;5012903;28;20181;-74
2023/02/08 05:50:32;;;;;;;7.00;4.70;;;1.50;99.90;;;;;;5013416;28;20327;-73
2023/02/08 05:52:57;;;;;;;10.10;5.83;;;1.50;99.90;;;;;;5030363;28;20213;-75
2023/02/08 05:55:25;;;;;;;8.40;5.67;;;1.40;99.90;;;;;;5012836;28;20272;-75
2023/02/08 05:57:53;;;;;;;7.03;5.00;;;1.40;99.90;;;;;;5013268;28;20589;-74
2023/02/08 06:00:19;;;;;;;7.78;5.78;;;1.40;99.90;;;;;;4996497;28;20169;-75
2023/02/08 06:02:45;;;;;;;7.35;5.22;;;1.50;99.90;;;;;;5030418;28;20233;-74
2023/02/08 06:05:11;;;;;;;8.00;5.10;;;1.40;99.90;;;;;;5012619;28;20204;-75
2023/02/08 06:07:36;;;;;;;8.17;5.83;;;1.40;99.90;;;;;;5031019;28;20189;-75
2023/02/08 06:10:05;;;;;;;8.80;6.37;;;1.40;99.90;;;;;;5012946;28;20236;-75
2023/02/08 06:12:31;;;;;;;8.45;5.22;;;1.40;99.90;;;;;;5030617;28;20281;-74
2023/02/08 06:14:56;;;;;;;9.83;6.00;;;1.40;99.90;;;;;;5012434;28;20277;-74
2023/02/08 06:17:22;;;;;;;8.90;6.07;;;1.40;99.90;;;;;;5030754;28;20182;-74
2023/02/08 06:19:48;;;;;;;8.10;5.57;;;1.40;99.90;;;;;;4996602;28;20182;-73
2023/02/08 06:22:13;;;;;;;7.73;4.83;;;1.40;99.90;;;;;;5014600;28;20213;-74
2023/02/08 06:24:39;;;;;;;6.90;4.87;;;1.40;99.90;;;;;;5012699;28;20181;-75
2023/02/08 06:27:05;;;;;;;7.17;5.10;;;1.40;99.90;;;;;;4979996;28;20174;-75
2023/02/08 06:29:30;;;;;;;8.70;5.90;;;1.40;99.90;;;;;;5030253;28;20630;-74
2023/02/08 06:31:56;;;;;;;8.57;5.20;;;1.50;99.90;;;;;;5015444;28;20208;-75
2023/02/08 06:34:22;;;;;;;10.80;5.27;;;1.50;99.90;;;;;;5016851;28;20178;-74
2023/02/08 06:36:48;;;;;;;10.15;5.25;;;1.50;99.90;;;;;;5015762;28;20176;-74
2023/02/08 06:39:14;;;;;;;7.33;4.70;;;1.50;99.90;;;;;;5016537;28;20595;-75
2023/02/08 06:41:39;;;;;;;5.83;4.57;;;1.50;99.90;;;;;;5015683;28;20677;-75
2023/02/08 06:44:05;;;;;;;7.20;4.70;;;1.50;99.90;;;;;;5016535;28;20643;-74
2023/02/08 06:46:31;;;;;;;6.87;4.63;;;1.50;99.90;;;;;;5015486;28;20174;-74
2023/02/08 06:48:59;;;;;;;6.00;4.33;;;1.50;99.90;;;;;;5034411;28;20202;-74
2023/02/08 06:51:25;;;;;;;8.63;4.78;;;1.60;99.90;;;;;;5033315;28;20202;-74
2023/02/08 06:53:51;;;;;;;6.80;5.47;;;1.60;99.90;;;;;;5016226;28;20656;-73
2023/02/08 06:56:16;;;;;;;8.23;4.73;;;1.50;99.90;;;;;;5033139;28;20173;-74
2023/02/08 06:58:42;;;;;;;11.87;6.53;;;1.60;99.90;;;;;;5017767;28;20178;-74
2023/02/08 07:01:13;;;;;;;7.70;5.40;;;1.50;99.90;;;;;;5015885;28;20651;-74
2023/02/08 07:03:40;;;;;;;8.85;4.40;;;1.50;99.90;;;;;;5008179;28;20192;-74
2023/02/08 07:06:11;;;;;;;8.70;4.97;;;1.60;99.90;;;;;;5015378;28;20174;-74
2023/02/08 07:08:37;;;;;;;7.32;5.93;;;1.60;99.90;;;;;;4998457;28;20212;-75
2023/02/08 07:11:11;;;;;;;9.13;4.47;;;1.60;99.90;;;;;;5015386;28;20205;-74
2023/02/08 07:13:37;;;;;;;7.10;5.63;;;1.60;99.90;;;;;;4996153;28;20647;-75
2023/02/08 07:16:04;;;;;;;8.40;5.35;;;1.60;99.90;;;;;;5014957;28;20166;-73
2023/02/08 07:18:31;;;;;;;7.13;4.97;;;1.70;99.90;;;;;;5017288;28;20181;-73
2023/02/08 07:20:56;;;;;;;7.40;4.30;;;1.60;99.90;;;;;;5018980;28;20201;-72
2023/02/08 07:23:22;;;;;;;10.87;5.83;;;1.70;99.90;;;;;;5035453;28;20288;-73
2023/02/08 07:26:09;;;;;;;6.90;5.07;;;1.70;99.90;;;;;;5036491;28;20668;-73
2023/02/08 07:28:35;;;;;;;8.43;5.25;;;1.70;99.90;;;;;;5019206;28;20173;-73
2023/02/08 07:31:13;;;;;;;7.45;4.60;;;1.70;99.90;;;;;;5036437;28;20676;-74
2023/02/08 07:33:39;;;;;;;9.02;6.28;;;1.80;99.90;;;;;;5036408;28;20169;-73
2023/02/08 07:36:06;;;;;;;7.65;4.55;;;1.80;99.90;;;;;;5032863;28;20223;-74
2023/02/08 07:38:32;;;;;;;7.25;4.65;;;1.80;99.90;;;;;;5032960;28;20178;-74
2023/02/08 07:41:06;;;;;;;7.57;4.57;;;1.80;99.90;;;;;;5032657;28;20194;-73
2023/02/08 07:43:37;;;;;;;10.15;6.47;;;1.80;99.90;;;;;;5032642;28;20180;-73
2023/02/08 07:46:06;;;;;;;5.80;4.38;;;1.80;99.90;;;;;;5014184;28;20174;-74
2023/02/08 07:48:31;;;;;;;8.00;6.72;;;1.80;99.90;;;;;;5015066;28;20173;-74
2023/02/08 07:50:57;;;;;;;9.47;6.43;;;1.80;99.90;;;;;;5014813;28;20661;-74
2023/02/08 07:53:23;;;;;;;7.97;6.13;;;1.80;99.90;;;;;;5014269;28;20646;-73
2023/02/08 07:55:48;;;;;;;10.53;6.93;;;1.80;99.90;;;;;;5032096;28;20170;-73
2023/02/08 07:58:14;;;;;;;8.73;5.37;;;1.90;99.90;;;;;;5014481;28;20242;-73
2023/02/08 08:00:40;;;;;;;8.53;4.70;;;1.90;99.90;;;;;;5014719;28;20200;-73
2023/02/08 08:03:06;;;;;;;11.53;5.50;;;2.00;99.90;;;;;;5031480;28;20563;-73
2023/02/08 08:05:31;;;;;;;9.87;5.10;;;2.00;99.90;;;;;;5014482;28;20581;-73
2023/02/08 08:07:57;;;;;;;8.20;6.47;;;2.10;99.90;;;;;;5014066;28;20909;-73
2023/02/08 08:10:23;;;;;;;7.27;5.37;;;2.10;99.90;;;;;;4998073;28;20569;-73
2023/02/08 08:12:49;;;;;;;7.00;4.90;;;2.10;99.90;;;;;;5014183;28;20198;-73
2023/02/08 08:15:14;;;;;;;9.60;7.03;;;2.10;99.90;;;;;;5013485;28;20580;-73
2023/02/08 08:17:41;;;;;;;7.57;5.20;;;2.20;99.90;;;;;;5014493;28;20951;-74
2023/02/08 08:20:09;;;;;;;7.03;4.25;;;2.20;99.90;;;;;;5013856;28;20173;-74
2023/02/08 08:22:34;;;;;;;6.80;5.40;;;2.30;99.90;;;;;;5031864;28;20201;-74
2023/02/08 08:25:00;;;;;;;8.20;5.43;;;2.40;99.90;;;;;;5031023;28;20651;-75
2023/02/08 08:27:29;;;;;;;6.80;4.47;;;2.40;99.90;;;;;;5014203;28;20178;-74
2023/02/08 08:29:55;;;;;;;9.05;6.63;;;2.50;99.90;;;;;;5012190;28;20537;-74
2023/02/08 08:32:20;;;;;;;8.93;5.70;;;2.60;99.90;;;;;;5031079;28;20189;-74
2023/02/08 08:34:46;;;;;;;9.07;5.50;;;2.60;99.90;;;;;;5013722;28;20292;-74
2023/02/08 08:37:12;;;;;;;7.60;4.63;;;2.70;99.90;;;;;;5031582;28;20235;-74
2023/02/08 08:39:37;;;;;;;6.60;4.80;;;2.80;99.90;;;;;;4997645;28;20184;-74
2023/02/08 08:42:03;;;;;;;6.60;5.10;;;2.90;99.90;;;;;;5030743;28;20213;-74
2023/02/08 08:44:30;;;;;;;7.37;5.20;;;2.90;99.10;;;;;;5013844;28;20593;-74
2023/02/08 08:46:56;;;;;;;7.38;5.40;;;3.00;99.90;;;;;;5030997;28;20608;-74
2023/02/08 08:49:23;;;;;;;10.15;5.00;;;3.10;99.90;;;;;;5013673;28;20162;-74
2023/02/08 08:51:49;;;;;;;7.18;5.60;;;3.30;99.90;;;;;;5014957;28;20247;-74
2023/02/08 08:54:16;;;;;;;7.18;4.70;;;3.40;99.40;;;;;;5012563;28;20256;-74
2023/02/08 08:56:41;;;;;;;6.72;4.65;;;3.40;99.30;;;;;;5031568;28;20192;-74
2023/02/08 08:59:09;;;;;;;11.57;6.40;;;3.50;99.10;;;;;;5013584;28;20181;-74
2023/02/08 09:01:35;;;;;;;7.47;5.50;;;3.60;99.90;;;;;;5035788;28;20240;-74
2023/02/08 09:04:01;;;;;;;6.57;5.20;;;3.70;98.50;;;;;;5016342;28;20567;-74
2023/02/08 09:06:26;;;;;;;10.50;6.10;;;3.80;99.10;;;;;;5031148;28;20185;-74
2023/02/08 09:08:52;;;;;;;10.93;5.97;;;3.90;99.00;;;;;;5013465;28;20181;-74
2023/02/08 09:11:18;;;;;;;8.60;6.00;;;3.90;97.20;;;;;;4996032;28;20174;-74
2023/02/08 09:13:44;;;;;;;7.03;5.10;;;4.00;97.90;;;;;;5031245;28;20588;-74
2023/02/08 09:16:16;;;;;;;7.80;6.00;;;4.20;98.80;;;;;;5030171;28;20908;-74
2023/02/08 09:18:42;;;;;;;7.28;5.22;;;4.30;96.50;;;;;;5012526;28;20177;-74
2023/02/08 09:21:16;;;;;;;5.60;4.68;;;4.40;98.80;;;;;;5023744;28;20251;-74
2023/02/08 09:23:42;;;;;;;5.75;5.05;;;4.60;99.10;;;;;;5013945;28;20584;-73
2023/02/08 09:26:10;;;;;;;6.55;5.15;;;5.00;98.50;;;;;;5012137;28;20200;-74
2023/02/08 09:28:36;;;;;;;7.45;5.00;;;5.60;99.60;;;;;;5013475;28;20170;-74
2023/02/08 09:31:20;;;;;;;5.75;4.13;;;6.50;99.90;;;;;;5013076;28;20177;-74
2023/02/08 09:33:46;;;;;;;5.63;4.38;;;7.40;99.90;;;;;;5030895;28;20239;-74
2023/02/08 09:36:13;;;;;;;4.97;4.32;;;8.40;99.90;;;;;;5029758;28;20182;-74
2023/02/08 09:38:40;;;;;;;5.07;4.30;;;9.30;99.90;;;;;;5030333;28;20182;-74
2023/02/08 09:41:32;;;;;;;6.87;5.10;;;10.10;99.90;;;;;;5030006;28;20189;-73
2023/02/08 09:44:22;;;;;;;6.63;5.40;;;10.90;99.90;;;;;;5014376;28;20656;-74
2023/02/08 09:47:16;;;;;;;6.60;5.50;;;11.60;97.70;;;;;;4993024;28;20724;-74
2023/02/08 09:49:54;;;;;;;7.80;5.20;;;12.30;92.90;;;;;;4981741;28;20636;-74
2023/02/08 09:52:25;;;;;;;6.03;4.80;;;12.80;91.70;;;;;;5010600;28;20731;-74
2023/02/08 09:54:58;;;;;;;6.63;5.23;;;13.40;95.90;;;;;;5029628;28;20597;-74
2023/02/08 09:57:29;;;;;;;6.10;5.20;;;14.00;95.10;;;;;;5013051;28;20754;-74
2023/02/08 10:00:00;;;;;;;6.90;4.90;;;14.60;83.20;;;;;;5030347;28;20680;-74
2023/02/08 10:02:32;;;;;;;6.57;4.10;;;15.10;92.80;;;;;;5012687;28;20648;-74
2023/02/08 10:05:13;;;;;;;8.57;5.80;;;15.50;93.10;;;;;;5012279;28;20577;-75
2023/02/08 10:07:41;;;;;;;7.23;6.30;;;16.10;90.30;;;;;;5016860;28;21335;-75
2023/02/08 10:10:40;;;;;;;7.30;6.20;;;16.40;87.10;;;;;;5016046;28;20573;-75
2023/02/08 10:13:12;;;;;;;5.70;4.53;;;16.10;62.70;;;;;;5016271;28;20627;-75
2023/02/08 10:15:52;;;;;;;7.17;5.73;;;16.30;77.40;;;;;;5033399;28;20572;-74
2023/02/08 10:18:43;;;;;;;4.90;4.00;;;16.20;70.80;;;;;;5000618;28;20585;-74
2023/02/08 10:21:43;;;;;;;5.00;4.27;;;16.40;73.20;;;;;;5021297;28;20681;-74
2023/02/08 10:24:40;;;;;;;5.33;4.60;;;16.80;76.50;;;;;;5031488;28;20616;-74
2023/02/08 10:27:15;;;;;;;4.80;4.20;;;16.90;72.50;;;;;;5001564;28;20679;-74
2023/02/08 10:29:57;;;;;;;5.03;4.27;;;16.70;63.30;;;;;;5034078;28;20983;-75
2023/02/08 10:32:22;;;;;;;4.60;3.93;;;16.60;66.00;;;;;;5033219;28;20592;-74
2023/02/08 10:34:53;;;;;;;5.63;4.30;;;16.40;67.40;;;;;;5015940;28;20572;-74
2023/02/08 10:37:33;;;;;;;6.33;4.80;;;16.10;55.30;;;;;;5032099;28;20184;-75
2023/02/08 10:40:35;;;;;;;4.53;3.90;;;15.80;59.90;;;;;;5016127;28;20672;-74
2023/02/08 10:43:19;;;;;;;5.00;4.50;;;15.70;59.10;;;;;;4999456;28;20702;-74
2023/02/08 10:45:55;;;;;;;6.03;4.40;;;15.50;51.50;;;;;;5035252;28;20586;-74
2023/02/08 10:48:45;;;;;;;6.00;4.60;;;15.30;59.40;;;;;;5036189;28;20609;-74
2023/02/08 10:51:18;;;;;;;11.00;5.83;;;15.00;58.20;;;;;;5018526;28;21401;-73
2023/02/08 10:53:45;;;;;;;7.27;5.27;;;14.80;58.40;;;;;;5019220;28;20599;-74
2023/02/08 10:56:42;;;;;;;5.00;4.50;;;14.50;57.90;;;;;;5052578;28;20571;-74
2023/02/08 10:59:19;;;;;;;7.27;4.80;;;14.00;57.40;;;;;;5025946;28;20963;-74
2023/02/08 11:01:47;;;;;;;7.10;4.73;;;13.40;53.60;;;;;;5034691;28;20659;-74
2023/02/08 11:04:13;;;;;;;8.80;6.13;;;12.90;54.60;;;;;;5048171;28;20584;-73
2023/02/08 11:06:40;;;;;;;5.07;4.30;;;12.20;53.60;;;;;;5032387;28;20580;-74
2023/02/08 11:09:18;;;;;;;5.32;4.25;;;11.70;52.60;;;;;;5033566;28;20664;-73
2023/02/08 11:11:45;;;;;;;7.65;5.00;;;11.20;52.80;;;;;;5014622;28;20197;-73
2023/02/08 11:14:17;;;;;;;6.90;4.60;;;10.80;54.90;;;;;;5015430;28;20178;-74
2023/02/08 11:16:54;;;;;;;10.05;4.40;;;10.40;53.90;;;;;;5032032;28;20174;-74
2023/02/08 11:19:29;;;;;;;5.93;4.20;;;10.10;50.20;;;;;;5033628;28;20185;-75
2023/02/08 11:21:56;;;;;;;6.30;4.03;;;9.80;52.30;;;;;;5017266;28;20212;-74
2023/02/08 11:24:40;;;;;;;5.25;4.53;;;9.60;54.40;;;;;;5033078;28;20205;-74
2023/02/08 11:27:43;;;;;;;5.35;3.20;;;9.40;55.40;;;;;;5031601;28;20177;-74
2023/02/08 11:30:09;;;;;;;5.53;3.35;;;9.30;56.70;;;;;;5027714;28;20272;-74
2023/02/08 11:32:35;;;;;;;5.90;3.70;;;9.30;57.30;;;;;;5014655;28;20620;-75
2023/02/08 11:35:11;;;;;;;4.38;3.40;;;9.20;57.30;;;;;;5030990;28;20272;-76
2023/02/08 11:37:36;;;;;;;5.60;3.90;;;9.10;55.70;;;;;;5032482;28;20637;-75
2023/02/08 11:40:04;;;;;;;5.17;4.00;;;9.10;57.70;;;;;;5014992;28;20189;-75
2023/02/08 11:42:36;;;;;;;7.63;4.70;;;8.90;56.50;;;;;;5032243;28;20213;-74
2023/02/08 11:45:03;;;;;;;5.15;3.50;;;8.80;55.10;;;;;;5027206;28;20165;-75
2023/02/08 11:47:33;;;;;;;7.13;4.13;;;8.70;55.30;;;;;;5015007;28;20169;-73
2023/02/08 11:50:04;;;;;;;7.43;4.22;;;8.60;56.80;;;;;;5024489;28;20223;-74
2023/02/08 11:52:34;;;;;;;8.30;4.60;;;8.60;57.40;;;;;;5016546;28;20279;-74
2023/02/08 11:55:15;;;;;;;6.60;3.92;;;8.60;55.70;;;;;;5031729;28;20170;-74
2023/02/08 11:57:54;;;;;;;5.25;4.45;;;8.50;51.90;;;;;;5022270;28;20177;-75
2023/02/08 12:00:30;;;;;;;4.65;3.35;;;8.40;50.30;;;;;;5031615;28;20265;-75
2023/02/08 12:03:20;;;;;;;4.25;2.97;;;8.40;54.70;;;;;;5013296;28;20577;-74
2023/02/08 12:05:48;;;;;;;4.63;3.15;;;8.40;56.40;;;;;;5029940;28;20269;-74
2023/02/08 12:08:38;;;;;;;4.93;3.45;;;8.50;56.20;;;;;;5014061;28;20178;-75
2023/02/08 12:11:12;;;;;;;5.90;3.45;;;8.50;57.20;;;;;;4981777;28;20190;-75
2023/02/08 12:13:48;;;;;;;4.07;2.80;;;8.50;56.40;;;;;;4994431;28;20178;-75
2023/02/08 12:16:31;;;;;;;5.85;4.18;;;8.50;56.30;;;;;;5011544;28;20170;-74
2023/02/08 12:19:16;;;;;;;4.70;3.10;;;8.50;54.70;;;;;;5013902;28;20176;-74
2023/02/08 12:22:12;;;;;;;5.13;4.30;;;8.50;57.00;;;;;;5013221;28;20224;-74
2023/02/08 12:24:53;;;;;;;3.95;2.83;;;8.50;53.40;;;;;;4966248;28;20516;-74
2023/02/08 12:27:59;;;;;;;3.85;2.80;;;8.50;53.40;;;;;;5012095;28;20174;-74
2023/02/08 12:30:33;;;;;;;4.00;3.17;;;8.50;54.70;;;;;;4955672;28;20252;-75
2023/02/08 12:33:43;;;;;;;4.43;3.60;;;8.50;53.40;;;;;;5011466;28;20292;-76
2023/02/08 12:36:25;;;;;;;5.10;2.70;;;8.50;55.60;;;;;;5027546;28;20227;-75
2023/02/08 12:42:05;;;;;;;4.78;2.67;;;8.60;52.00;;;;;;5030970;28;20288;-74
2023/02/08 12:44:43;;;;;;;4.28;2.65;;;8.60;54.60;;;;;;5022959;28;20184;-75
2023/02/08 12:47:43;;;;;;;7.90;3.15;;;8.60;54.20;;;;;;5032578;28;20172;-74
2023/02/08 12:50:37;;;;;;;5.38;2.55;;;8.60;51.80;;;;;;5033762;28;20268;-74
2023/02/08 12:53:16;;;;;;;3.95;2.80;;;8.60;50.30;;;;;;5016446;28;20207;-75
2023/02/08 12:55:43;;;;;;;3.88;2.63;;;8.60;51.70;;;;;;5016840;28;20788;-75
2023/02/08 12:58:20;;;;;;;8.63;3.15;;;8.60;53.50;;;;;;5050805;28;20161;-74
2023/02/08 13:00:49;;;;;;;4.15;2.47;;;8.60;51.20;;;;;;5033206;28;20262;-75
2023/02/08 13:03:21;;;;;;;3.88;2.50;;;8.70;52.00;;;;;;5032536;28;20181;-75
2023/02/08 13:05:48;;;;;;;3.42;2.00;;;8.70;52.30;;;;;;5032886;28;20536;-75
2023/02/08 13:08:46;;;;;;;4.70;2.97;;;8.80;53.80;;;;;;5017786;28;20657;-75
2023/02/08 13:11:39;;;;;;;4.35;2.20;;;8.70;48.30;;;;;;5013125;28;20185;-76
2023/02/08 13:14:33;;;;;;;3.45;1.65;;;8.80;54.40;;;;;;5012889;28;20269;-75
2023/02/08 13:17:11;;;;;;;5.70;2.28;;;8.90;55.40;;;;;;5016969;28;20169;-75
2023/02/08 13:19:57;;;;;;;6.03;2.00;;;8.90;55.50;;;;;;5030438;28;20196;-74
2023/02/08 13:22:23;;;;;;;3.80;2.30;;;8.90;53.30;;;;;;5029783;28;20202;-75
2023/02/08 13:24:51;;;;;;;3.90;2.80;;;8.90;53.00;;;;;;5023763;28;20563;-75
2023/02/08 13:27:19;;;;;;;5.20;2.60;;;8.90;51.20;;;;;;5026913;28;20254;-75